Time;durP1;ratioP1;P1;durP2;ratioP2;P2;SDS_P1;SDS_P2;PMS_P1;PMS_P2;Temp;Humidity;BMP_temperature;BMP_pressure;BME280_temperature;BME280_humidity;BME280_pressure;Samples;Min_cycle;Max_cycle;Signal;HPM_P1;HPM_P2
2023/03/30 00:01:13;;;;;;;1.70;0.50;;;22.30;87.90;;;;;;5027284;28;20044;-63
2023/03/30 00:03:44;;;;;;;0.68;0.30;;;22.40;87.40;;;;;;5026340;28;20099;-64
2023/03/30 00:06:14;;;;;;;4.85;0.75;;;22.50;87.00;;;;;;5019344;28;20389;-63
2023/03/30 00:08:41;;;;;;;2.72;0.73;;;22.60;84.50;;;;;;5023446;28;20124;-62
2023/03/30 00:11:15;;;;;;;11.07;1.35;;;22.60;82.10;;;;;;5021723;28;20051;-60
2023/03/30 00:13:43;;;;;;;;;;;22.60;81.40;;;;;;5024191;28;20120;-62
2023/03/30 00:16:13;;;;;;;2.17;0.40;;;22.40;78.80;;;;;;5021288;28;19948;-62
2023/03/30 00:18:41;;;;;;;2.28;1.00;;;22.30;79.50;;;;;;5020935;28;20510;-63
2023/03/30 00:21:09;;;;;;;4.90;0.65;;;22.40;76.90;;;;;;5022372;28;20797;-62
2023/03/30 00:23:38;;;;;;;4.53;0.73;;;22.50;77.90;;;;;;5027297;28;20057;-63
2023/03/30 00:26:06;;;;;;;1.65;0.60;;;22.40;75.70;;;;;;5012609;28;20191;-64
2023/03/30 00:28:34;;;;;;;1.95;0.35;;;22.50;78.60;;;;;;5019263;28;20044;-63
2023/03/30 00:31:01;;;;;;;1.92;0.45;;;22.60;73.90;;;;;;5015866;28;20109;-64
2023/03/30 00:33:30;;;;;;;1.75;0.40;;;22.50;72.50;;;;;;5022082;28;20516;-63
2023/03/30 00:35:58;;;;;;;7.05;0.60;;;22.50;75.20;;;;;;5022079;28;20028;-62
2023/03/30 00:38:26;;;;;;;2.72;0.40;;;22.50;73.70;;;;;;5020894;28;20116;-63
2023/03/30 00:40:55;;;;;;;2.50;0.93;;;22.70;75.70;;;;;;5025343;28;20021;-64
2023/03/30 00:43:24;;;;;;;8.70;0.82;;;22.80;72.10;;;;;;5024080;28;20107;-62
2023/03/30 00:45:51;;;;;;;3.00;0.95;;;22.80;73.00;;;;;;5002464;28;20053;-61
2023/03/30 00:48:27;;;;;;;2.03;0.32;;;22.90;69.20;;;;;;5019511;28;20116;-62
2023/03/30 00:51:11;;;;;;;4.07;0.40;;;22.90;70.60;;;;;;5026035;28;20034;-62
2023/03/30 00:53:48;;;;;;;1.65;0.20;;;23.00;72.30;;;;;;5010455;28;20132;-62
2023/03/30 00:56:21;;;;;;;0.88;0.20;;;23.10;71.30;;;;;;5024319;28;20593;-62
2023/03/30 00:58:49;;;;;;;1.60;0.20;;;23.10;71.50;;;;;;5027447;28;20528;-62
2023/03/30 01:01:24;;;;;;;1.02;0.30;;;23.30;70.20;;;;;;5019923;28;20105;-62
2023/03/30 01:03:52;;;;;;;0.70;0.20;;;23.30;71.00;;;;;;5025847;28;20033;-62
2023/03/30 01:06:23;;;;;;;1.38;0.28;;;23.50;70.30;;;;;;5025672;28;20436;-62
2023/03/30 01:08:53;;;;;;;0.63;0.20;;;23.60;70.20;;;;;;5010362;28;20048;-63
2023/03/30 01:11:21;;;;;;;0.55;0.20;;;23.70;67.90;;;;;;5026221;28;20516;-62
2023/03/30 01:13:53;;;;;;;1.30;0.30;;;23.70;70.00;;;;;;5026057;28;20048;-63
2023/03/30 01:16:45;;;;;;;0.85;0.20;;;23.70;67.80;;;;;;5028896;28;20025;-63
2023/03/30 01:19:53;;;;;;;2.13;0.30;;;23.70;65.40;;;;;;5029119;28;20047;-62
2023/03/30 01:23:14;;;;;;;0.63;0.20;;;23.80;64.20;;;;;;5025066;28;20052;-64
2023/03/30 01:26:05;;;;;;;1.65;0.20;;;23.70;66.30;;;;;;4936314;29;20039;-64
2023/03/30 01:29:02;;;;;;;1.63;0.20;;;23.70;66.50;;;;;;5013621;28;20042;-62
2023/03/30 01:31:32;;;;;;;2.95;0.60;;;23.80;62.30;;;;;;5011152;28;20053;-61
2023/03/30 01:34:20;;;;;;;6.72;0.55;;;23.80;65.00;;;;;;5009213;28;20047;-62
2023/03/30 01:37:12;;;;;;;2.45;0.40;;;23.80;64.20;;;;;;5027394;28;20033;-62
2023/03/30 01:40:09;;;;;;;0.38;0.22;;;23.60;63.30;;;;;;5024108;28;20022;-62
2023/03/30 01:43:07;;;;;;;8.25;0.50;;;23.70;65.30;;;;;;5008501;28;20068;-61
2023/03/30 01:45:51;;;;;;;4.72;0.30;;;23.90;64.40;;;;;;5016214;28;20041;-62
2023/03/30 01:49:10;;;;;;;3.83;0.50;;;23.90;64.70;;;;;;5016802;28;20083;-61
2023/03/30 01:51:47;;;;;;;4.85;0.80;;;23.90;61.30;;;;;;5013545;28;20279;-62
2023/03/30 01:54:26;;;;;;;1.73;0.40;;;23.90;65.40;;;;;;5023683;28;20029;-63
2023/03/30 01:57:04;;;;;;;6.18;0.60;;;24.00;63.70;;;;;;5018812;28;20048;-63
2023/03/30 01:59:43;;;;;;;3.80;0.50;;;24.30;64.50;;;;;;5026858;28;20022;-62
2023/03/30 02:02:15;;;;;;;1.77;0.82;;;24.40;62.00;;;;;;5025326;28;20108;-63
2023/03/30 02:04:44;;;;;;;3.80;0.65;;;24.30;62.00;;;;;;5023960;28;20100;-62
2023/03/30 02:07:25;;;;;;;0.60;0.25;;;24.30;60.60;;;;;;5017642;28;20030;-63
2023/03/30 02:09:55;;;;;;;2.70;0.20;;;24.40;63.40;;;;;;5011778;28;20446;-62
2023/03/30 02:12:25;;;;;;;1.55;0.43;;;24.50;67.00;;;;;;5026536;28;20022;-62
2023/03/30 02:14:56;;;;;;;1.00;0.20;;;24.60;59.90;;;;;;5024832;28;20108;-62
2023/03/30 02:17:26;;;;;;;4.80;0.52;;;24.60;61.30;;;;;;5028092;28;20013;-62
2023/03/30 02:19:55;;;;;;;2.00;0.22;;;24.80;63.40;;;;;;5025331;28;20053;-62
2023/03/30 02:22:23;;;;;;;1.55;0.85;;;24.90;61.30;;;;;;5030382;28;20489;-63
2023/03/30 02:24:54;;;;;;;1.35;0.30;;;24.80;59.50;;;;;;5030064;28;20041;-62
2023/03/30 02:27:26;;;;;;;0.20;0.13;;;24.80;58.80;;;;;;5027991;28;20022;-62
2023/03/30 02:29:55;;;;;;;3.20;0.88;;;24.80;61.40;;;;;;5029605;28;20037;-62
2023/03/30 02:32:28;;;;;;;2.42;0.65;;;24.70;60.00;;;;;;5026674;28;20029;-61
2023/03/30 02:35:23;;;;;;;2.55;0.22;;;24.70;61.90;;;;;;5030183;28;20035;-62
2023/03/30 02:38:23;;;;;;;0.85;0.20;;;24.90;60.30;;;;;;5027966;28;20022;-62
2023/03/30 02:41:33;;;;;;;1.58;0.35;;;25.00;58.40;;;;;;5019694;28;20022;-62
2023/03/30 02:44:38;;;;;;;0.85;0.20;;;25.10;57.80;;;;;;4968314;28;20041;-62
2023/03/30 02:47:22;;;;;;;;;;;25.10;58.10;;;;;;4966167;28;20042;-63
2023/03/30 02:50:08;;;;;;;0.05;0.05;;;25.00;61.90;;;;;;5029104;28;19979;-62
2023/03/30 02:53:00;;;;;;;0.73;0.20;;;25.20;56.80;;;;;;5028050;28;20041;-62
2023/03/30 02:56:05;;;;;;;0.68;0.20;;;25.30;58.80;;;;;;5030858;28;20031;-62
2023/03/30 02:58:45;;;;;;;0.70;0.20;;;25.40;60.60;;;;;;4984561;28;20502;-62
2023/03/30 03:01:15;;;;;;;4.05;0.40;;;25.60;57.60;;;;;;5029091;28;20038;-64
2023/03/30 03:03:46;;;;;;;3.08;0.32;;;25.50;57.80;;;;;;5016392;28;20367;-62
2023/03/30 03:06:15;;;;;;;2.35;0.30;;;25.50;55.10;;;;;;5018279;28;20371;-64
2023/03/30 03:08:46;;;;;;;2.45;0.30;;;25.50;56.30;;;;;;5029711;28;20121;-62
2023/03/30 03:11:14;;;;;;;5.07;0.38;;;25.60;54.50;;;;;;5029687;28;21149;-63
2023/03/30 03:13:42;;;;;;;0.35;0.10;;;25.50;54.20;;;;;;5027825;28;20029;-62
2023/03/30 03:16:11;;;;;;;1.73;0.43;;;25.40;55.10;;;;;;5030191;28;20037;-62
2023/03/30 03:18:40;;;;;;;2.78;0.47;;;25.50;57.40;;;;;;5030966;28;20418;-62
2023/03/30 03:21:09;;;;;;;0.73;0.20;;;25.60;55.70;;;;;;5027069;28;20053;-63
2023/03/30 03:23:37;;;;;;;1.33;0.20;;;25.50;53.90;;;;;;5014296;28;20482;-63
2023/03/30 03:26:06;;;;;;;0.22;0.10;;;25.60;52.60;;;;;;5027511;28;20044;-63
2023/03/30 03:28:34;;;;;;;1.15;0.35;;;25.40;55.90;;;;;;5024983;28;20073;-63
2023/03/30 03:31:02;;;;;;;0.17;0.10;;;25.30;54.80;;;;;;5025355;28;20030;-62
2023/03/30 03:33:32;;;;;;;0.38;0.10;;;25.40;55.00;;;;;;5024056;28;20505;-63
2023/03/30 03:36:00;;;;;;;0.47;0.13;;;25.40;54.00;;;;;;5023733;28;20579;-64
2023/03/30 03:38:28;;;;;;;0.55;0.20;;;25.30;54.30;;;;;;5022119;28;20033;-63
2023/03/30 03:40:57;;;;;;;2.72;0.22;;;25.20;55.10;;;;;;5024724;28;20156;-64
2023/03/30 03:43:25;;;;;;;1.05;0.20;;;24.80;54.80;;;;;;5013399;28;20034;-64
2023/03/30 03:45:53;;;;;;;1.40;0.38;;;24.70;54.80;;;;;;5024732;28;20478;-64
2023/03/30 03:48:23;;;;;;;2.28;0.20;;;24.90;57.20;;;;;;5022190;28;20033;-63
2023/03/30 03:50:56;;;;;;;1.38;0.50;;;25.00;54.50;;;;;;5024366;28;20123;-63
2023/03/30 03:53:26;;;;;;;1.25;0.22;;;24.70;55.40;;;;;;5023005;28;20013;-63
2023/03/30 03:55:54;;;;;;;1.00;0.32;;;24.30;56.30;;;;;;5025756;28;20025;-62
2023/03/30 03:58:22;;;;;;;3.22;0.40;;;24.40;56.00;;;;;;5015730;28;20394;-62
2023/03/30 04:00:50;;;;;;;6.28;0.50;;;24.20;54.50;;;;;;5023622;28;20022;-63
2023/03/30 04:03:17;;;;;;;2.20;0.47;;;24.10;56.00;;;;;;5027355;28;20025;-65
2023/03/30 04:05:45;;;;;;;3.65;0.50;;;23.80;55.80;;;;;;5027473;28;20021;-63
2023/03/30 04:08:12;;;;;;;3.33;0.82;;;23.60;55.80;;;;;;5026882;28;20029;-63
2023/03/30 04:10:41;;;;;;;0.75;0.20;;;23.70;55.90;;;;;;5027653;28;20486;-68
2023/03/30 04:13:08;;;;;;;0.82;0.10;;;24.00;53.90;;;;;;5027253;28;20370;-64
2023/03/30 04:15:36;;;;;;;2.28;0.40;;;24.30;54.80;;;;;;5027203;28;20037;-62
2023/03/30 04:18:03;;;;;;;4.68;0.43;;;24.70;55.60;;;;;;5027134;28;20116;-62
2023/03/30 04:20:31;;;;;;;0.20;0.20;;;24.80;55.70;;;;;;5027450;28;20025;-66
2023/03/30 04:23:00;;;;;;;2.13;0.35;;;24.80;54.60;;;;;;5025761;28;20018;-60
2023/03/30 04:25:28;;;;;;;2.40;0.30;;;24.70;55.70;;;;;;5029659;28;20030;-62
2023/03/30 04:27:56;;;;;;;0.43;0.25;;;24.80;54.80;;;;;;5026260;28;20104;-62
2023/03/30 04:30:23;;;;;;;1.75;0.10;;;24.80;54.10;;;;;;5027472;28;20026;-63
2023/03/30 04:33:01;;;;;;;1.38;0.22;;;24.70;53.50;;;;;;5017601;28;20034;-64
2023/03/30 04:35:33;;;;;;;1.77;0.20;;;24.80;54.40;;;;;;5030327;28;20036;-62
2023/03/30 04:38:01;;;;;;;1.75;0.45;;;24.80;54.20;;;;;;5028379;28;20171;-63
2023/03/30 04:40:28;;;;;;;1.05;0.30;;;24.80;53.30;;;;;;5026452;28;20087;-63
2023/03/30 04:43:02;;;;;;;6.03;0.63;;;24.80;55.30;;;;;;5029630;28;20486;-63
2023/03/30 04:45:33;;;;;;;5.47;0.40;;;24.90;54.20;;;;;;5021114;28;20034;-64
2023/03/30 04:48:00;;;;;;;1.98;0.50;;;24.90;54.40;;;;;;5026564;28;20037;-62
2023/03/30 04:50:27;;;;;;;2.80;0.40;;;25.10;53.30;;;;;;5025270;28;20486;-62
2023/03/30 04:52:55;;;;;;;1.42;0.10;;;25.10;52.70;;;;;;5030265;28;20040;-62
2023/03/30 04:55:22;;;;;;;3.58;0.60;;;25.10;54.20;;;;;;5028455;28;20048;-63
2023/03/30 04:57:50;;;;;;;3.67;0.85;;;25.10;53.00;;;;;;5027778;28;20033;-63
2023/03/30 05:00:18;;;;;;;2.33;0.32;;;25.20;53.00;;;;;;5024076;28;20030;-65
2023/03/30 05:02:45;;;;;;;5.90;0.52;;;25.30;53.30;;;;;;5025753;28;20654;-65
2023/03/30 05:05:13;;;;;;;0.32;0.17;;;25.20;53.00;;;;;;5024296;28;20087;-65
2023/03/30 05:07:40;;;;;;;2.22;0.20;;;25.00;51.60;;;;;;5024940;28;20017;-65
2023/03/30 05:10:08;;;;;;;1.67;0.32;;;25.00;52.70;;;;;;5018591;28;20124;-65
2023/03/30 05:12:35;;;;;;;3.42;0.30;;;25.00;52.00;;;;;;5030502;28;20040;-67
2023/03/30 05:15:03;;;;;;;0.45;0.17;;;24.90;52.80;;;;;;5025066;28;20056;-66
2023/03/30 05:17:34;;;;;;;4.03;0.60;;;24.80;52.40;;;;;;5022954;28;20097;-65
2023/03/30 05:20:04;;;;;;;4.03;0.40;;;24.70;52.80;;;;;;5022473;28;20132;-65
2023/03/30 05:22:32;;;;;;;2.75;0.45;;;24.70;52.70;;;;;;5016874;28;20025;-66
2023/03/30 05:25:00;;;;;;;1.75;0.30;;;24.60;52.30;;;;;;5028763;28;20018;-67
2023/03/30 05:27:27;;;;;;;1.20;0.22;;;24.50;52.90;;;;;;5019912;28;20018;-65
2023/03/30 05:29:55;;;;;;;2.08;0.45;;;24.30;52.30;;;;;;5024032;28;20033;-66
2023/03/30 05:32:22;;;;;;;2.33;0.55;;;24.10;52.00;;;;;;5026446;28;20090;-67
2023/03/30 05:34:50;;;;;;;4.10;0.30;;;23.90;53.70;;;;;;5020141;28;20044;-66
2023/03/30 05:37:17;;;;;;;2.35;0.38;;;23.60;53.90;;;;;;5020480;28;20018;-66
2023/03/30 05:39:45;;;;;;;6.38;0.40;;;23.60;54.30;;;;;;5010351;28;20120;-67
2023/03/30 05:42:12;;;;;;;1.08;0.30;;;23.60;54.60;;;;;;5023670;28;20044;-65
2023/03/30 05:44:40;;;;;;;0.90;0.25;;;23.70;55.10;;;;;;5019652;28;20175;-65
2023/03/30 05:47:07;;;;;;;3.08;0.25;;;23.80;54.60;;;;;;5005241;28;20025;-67
2023/03/30 05:49:35;;;;;;;2.67;0.30;;;23.80;53.10;;;;;;5023705;28;20152;-68
2023/03/30 05:52:02;;;;;;;2.17;0.40;;;23.70;55.20;;;;;;5026574;28;20026;-66
2023/03/30 05:54:30;;;;;;;1.77;0.40;;;23.70;54.40;;;;;;5024607;28;20116;-66
2023/03/30 05:56:58;;;;;;;5.60;0.30;;;23.70;53.20;;;;;;5024944;28;20029;-65
2023/03/30 05:59:25;;;;;;;4.10;0.40;;;23.70;54.30;;;;;;5020968;28;20037;-64
2023/03/30 06:01:54;;;;;;;5.53;0.52;;;23.80;54.40;;;;;;5025392;28;20021;-64
2023/03/30 06:04:22;;;;;;;4.13;0.57;;;23.80;55.40;;;;;;5024072;28;20033;-64
2023/03/30 06:06:49;;;;;;;1.13;0.20;;;23.80;55.30;;;;;;5024613;28;20168;-64
2023/03/30 06:09:17;;;;;;;4.78;0.88;;;23.80;55.10;;;;;;5024302;28;20033;-66
2023/03/30 06:11:45;;;;;;;4.88;0.70;;;23.80;55.10;;;;;;5025132;28;20021;-65
2023/03/30 06:14:12;;;;;;;0.95;0.40;;;23.80;53.50;;;;;;5016229;28;20183;-64
2023/03/30 06:16:40;;;;;;;14.45;0.88;;;23.80;53.60;;;;;;5026830;28;20021;-66
2023/03/30 06:19:07;;;;;;;2.30;0.40;;;23.70;54.20;;;;;;5013741;28;20021;-66
2023/03/30 06:21:35;;;;;;;9.73;0.77;;;23.60;53.10;;;;;;5024031;28;20030;-65
2023/03/30 06:24:03;;;;;;;2.13;0.60;;;23.50;53.80;;;;;;5021893;28;20501;-66
2023/03/30 06:26:31;;;;;;;6.05;0.38;;;23.50;55.00;;;;;;5024099;28;20093;-65
2023/03/30 06:28:58;;;;;;;2.58;0.65;;;23.50;54.80;;;;;;5026616;28;20736;-67
2023/03/30 06:31:26;;;;;;;3.03;0.35;;;23.30;54.10;;;;;;5023394;28;20029;-69
2023/03/30 06:33:53;;;;;;;5.82;1.05;;;23.20;53.50;;;;;;5021012;28;20022;-67
2023/03/30 06:36:21;;;;;;;3.03;0.57;;;23.10;55.10;;;;;;5023212;28;20106;-67
2023/03/30 06:38:48;;;;;;;1.20;0.20;;;23.10;55.20;;;;;;5025603;28;20018;-67
2023/03/30 06:41:16;;;;;;;2.75;1.15;;;23.00;55.60;;;;;;5023915;28;20136;-67
2023/03/30 06:43:43;;;;;;;2.65;0.30;;;23.00;55.00;;;;;;5005672;28;20109;-67
2023/03/30 06:46:11;;;;;;;1.83;0.35;;;22.90;55.10;;;;;;5004763;28;20177;-67
2023/03/30 06:48:39;;;;;;;0.73;0.30;;;22.80;55.60;;;;;;5007297;28;20080;-67
2023/03/30 06:51:07;;;;;;;3.55;0.40;;;22.70;56.50;;;;;;5007204;28;20037;-68
2023/03/30 06:53:35;;;;;;;1.55;0.30;;;22.60;55.90;;;;;;5004671;28;20037;-66
2023/03/30 06:56:02;;;;;;;0.73;0.25;;;22.40;55.80;;;;;;5006984;28;20034;-68
2023/03/30 06:58:30;;;;;;;1.30;0.20;;;22.30;56.10;;;;;;5006496;28;20176;-67
2023/03/30 07:00:58;;;;;;;2.67;0.30;;;22.20;56.10;;;;;;5024794;28;20030;-66
2023/03/30 07:03:25;;;;;;;1.58;0.38;;;22.10;56.00;;;;;;5025588;28;20092;-65
2023/03/30 07:05:52;;;;;;;1.08;0.32;;;22.00;55.60;;;;;;5005384;28;20379;-67
2023/03/30 07:08:20;;;;;;;0.93;0.35;;;21.90;56.70;;;;;;5007217;28;20057;-68
2023/03/30 07:10:48;;;;;;;1.05;0.38;;;21.80;56.40;;;;;;5022102;28;20026;-67
2023/03/30 07:13:16;;;;;;;1.65;0.30;;;21.70;57.00;;;;;;5011413;28;20245;-67
2023/03/30 07:15:44;;;;;;;0.60;0.30;;;21.50;57.20;;;;;;5019481;28;20038;-67
2023/03/30 07:18:11;;;;;;;1.85;0.40;;;21.50;57.70;;;;;;5004305;28;20030;-68
2023/03/30 07:20:39;;;;;;;2.83;0.30;;;21.40;58.40;;;;;;5008581;28;20042;-67
2023/03/30 07:23:07;;;;;;;3.00;0.28;;;21.20;56.60;;;;;;5002264;28;20026;-67
2023/03/30 07:25:35;;;;;;;1.70;0.40;;;21.20;57.40;;;;;;5001609;28;20026;-67
2023/03/30 07:28:05;;;;;;;2.25;0.40;;;21.10;57.50;;;;;;5001997;28;20022;-67
2023/03/30 07:30:37;;;;;;;0.52;0.20;;;21.00;57.20;;;;;;5022777;28;20359;-68
2023/03/30 07:33:05;;;;;;;2.38;0.30;;;20.90;57.90;;;;;;5006049;28;20021;-68
2023/03/30 07:35:32;;;;;;;0.20;0.10;;;20.80;57.80;;;;;;5005619;28;20030;-68
2023/03/30 07:38:00;;;;;;;2.05;0.30;;;20.80;57.60;;;;;;5004944;28;20117;-69
2023/03/30 07:40:27;;;;;;;0.63;0.22;;;20.70;58.00;;;;;;4999289;28;20362;-69
2023/03/30 07:42:55;;;;;;;1.48;0.30;;;20.50;59.30;;;;;;5023293;28;20095;-68
2023/03/30 07:45:23;;;;;;;1.70;0.20;;;20.40;59.50;;;;;;5022999;28;20026;-68
2023/03/30 07:47:50;;;;;;;1.35;0.95;;;20.40;59.40;;;;;;5022154;28;20029;-70
2023/03/30 07:50:17;;;;;;;0.28;0.20;;;20.20;59.30;;;;;;5025316;28;20033;-69
2023/03/30 07:52:45;;;;;;;2.17;0.20;;;20.20;59.80;;;;;;5027139;28;20026;-68
2023/03/30 07:55:13;;;;;;;0.35;0.20;;;20.10;60.60;;;;;;5023526;28;20044;-68
2023/03/30 07:57:41;;;;;;;1.48;0.28;;;20.00;61.30;;;;;;5024840;28;20044;-66
2023/03/30 08:00:09;;;;;;;2.20;0.47;;;19.90;61.70;;;;;;5024172;28;20041;-65
2023/03/30 08:02:37;;;;;;;2.65;0.50;;;19.80;61.40;;;;;;5018747;28;20029;-67
2023/03/30 08:05:05;;;;;;;1.38;0.30;;;19.80;61.80;;;;;;5015559;28;20026;-71
2023/03/30 08:07:34;;;;;;;3.53;0.35;;;19.60;62.20;;;;;;5024184;28;20113;-67
2023/03/30 08:10:01;;;;;;;2.45;0.68;;;19.60;62.70;;;;;;5025505;28;20438;-64
2023/03/30 08:12:29;;;;;;;3.95;0.45;;;19.40;63.80;;;;;;5025800;28;20036;-65
2023/03/30 08:14:56;;;;;;;8.55;1.33;;;19.20;64.00;;;;;;5024034;28;20033;-64
2023/03/30 08:17:24;;;;;;;1.25;0.43;;;19.20;64.50;;;;;;5025635;28;20018;-64
2023/03/30 08:19:52;;;;;;;5.85;0.60;;;19.00;64.80;;;;;;5026964;28;20021;-64
2023/03/30 08:22:19;;;;;;;4.57;0.77;;;18.90;66.20;;;;;;5009358;28;20040;-65
2023/03/30 08:24:47;;;;;;;10.30;0.73;;;18.80;67.20;;;;;;5025521;28;20029;-65
2023/03/30 08:27:14;;;;;;;5.47;0.90;;;18.60;67.70;;;;;;5029276;28;20129;-64
2023/03/30 08:29:42;;;;;;;4.20;0.75;;;18.50;68.60;;;;;;5024127;28;20044;-63
2023/03/30 08:32:09;;;;;;;4.10;0.52;;;18.30;69.60;;;;;;5013153;28;20025;-62
2023/03/30 08:34:37;;;;;;;5.85;0.95;;;18.30;70.30;;;;;;5017838;28;20041;-60
2023/03/30 08:37:05;;;;;;;8.68;0.75;;;18.20;70.40;;;;;;5010520;28;20068;-63
2023/03/30 08:39:32;;;;;;;2.97;0.50;;;18.20;71.10;;;;;;5021946;28;20021;-62
2023/03/30 08:42:06;;;;;;;2.00;0.45;;;18.10;71.70;;;;;;5026352;28;20107;-64
2023/03/30 08:44:36;;;;;;;16.25;1.38;;;18.00;72.80;;;;;;5022592;28;20030;-64
2023/03/30 08:47:09;;;;;;;13.32;1.85;;;17.90;73.70;;;;;;5027032;28;20398;-63
2023/03/30 08:50:02;;;;;;;14.00;1.15;;;18.00;74.60;;;;;;5007745;28;20755;-66
2023/03/30 08:52:31;;;;;;;17.75;1.45;;;18.10;74.80;;;;;;5003722;28;20041;-64
2023/03/30 08:55:00;;;;;;;11.35;1.38;;;18.10;74.50;;;;;;5026637;28;20122;-62
2023/03/30 08:57:39;;;;;;;7.30;1.17;;;18.20;74.50;;;;;;5027049;28;20493;-62
2023/03/30 09:00:13;;;;;;;8.25;0.80;;;18.20;74.10;;;;;;5021609;28;20018;-63
2023/03/30 09:02:42;;;;;;;;;;;18.20;73.90;;;;;;5018054;28;20026;-62
2023/03/30 09:05:17;;;;;;;18.55;1.05;;;18.20;74.50;;;;;;5025420;28;19919;-63
2023/03/30 09:08:03;;;;;;;9.30;0.90;;;18.10;75.30;;;;;;5009176;28;20049;-64
2023/03/30 09:10:35;;;;;;;9.68;1.00;;;18.00;75.70;;;;;;5026692;28;20036;-61
2023/03/30 09:13:07;;;;;;;3.92;0.57;;;18.00;75.40;;;;;;5008314;28;20426;-63
2023/03/30 09:15:55;;;;;;;0.88;0.38;;;18.00;75.40;;;;;;5021507;28;20120;-63
2023/03/30 09:18:34;;;;;;;1.40;0.30;;;17.90;75.60;;;;;;5023573;28;20057;-64
2023/03/30 09:21:04;;;;;;;1.90;0.30;;;17.70;76.30;;;;;;5019344;28;20033;-65
2023/03/30 09:23:34;;;;;;;0.90;0.38;;;17.80;76.40;;;;;;5020103;28;20059;-64
2023/03/30 09:26:42;;;;;;;1.98;0.45;;;17.70;77.60;;;;;;5017881;28;20029;-64
2023/03/30 09:29:12;;;;;;;2.95;0.75;;;17.70;76.70;;;;;;5020050;28;20065;-64
2023/03/30 09:32:11;;;;;;;2.33;0.60;;;17.70;77.60;;;;;;5021507;28;20546;-64
2023/03/30 09:34:46;;;;;;;2.85;0.60;;;17.60;78.00;;;;;;5016897;28;20045;-64
2023/03/30 09:37:17;;;;;;;4.57;0.50;;;17.60;77.90;;;;;;5020384;28;20110;-64
2023/03/30 09:39:45;;;;;;;3.70;0.65;;;17.70;77.70;;;;;;5021111;28;20022;-65
2023/03/30 09:42:22;;;;;;;10.05;0.63;;;17.80;76.80;;;;;;5023381;28;20658;-64
2023/03/30 09:45:14;;;;;;;10.07;2.20;;;17.80;76.50;;;;;;5009915;28;20037;-64
2023/03/30 09:47:42;;;;;;;1.58;0.50;;;17.90;76.70;;;;;;5023298;28;20025;-68
2023/03/30 09:50:21;;;;;;;3.13;0.30;;;17.80;77.10;;;;;;5023293;28;20064;-67
2023/03/30 09:53:24;;;;;;;4.82;0.40;;;17.80;78.10;;;;;;5023715;28;20060;-66
2023/03/30 09:56:09;;;;;;;4.13;1.08;;;17.70;77.30;;;;;;5018550;28;20128;-65
2023/03/30 09:58:36;;;;;;;0.60;0.20;;;17.70;77.60;;;;;;5021696;28;20037;-65
2023/03/30 10:01:07;;;;;;;0.65;0.22;;;17.80;78.30;;;;;;5015419;28;20044;-64
2023/03/30 10:03:35;;;;;;;2.03;0.38;;;17.70;78.40;;;;;;5015250;28;20037;-65
2023/03/30 10:06:15;;;;;;;1.83;0.40;;;17.70;77.70;;;;;;5025704;28;20057;-65
2023/03/30 10:08:48;;;;;;;3.08;0.32;;;17.70;78.10;;;;;;5015683;28;20068;-65
2023/03/30 10:11:20;;;;;;;0.98;0.25;;;17.60;78.70;;;;;;5023631;28;20087;-65
2023/03/30 10:13:52;;;;;;;3.00;0.50;;;17.50;79.20;;;;;;5015175;28;20029;-65
2023/03/30 10:16:26;;;;;;;1.27;0.95;;;17.40;80.10;;;;;;5003567;28;20034;-65
2023/03/30 10:18:59;;;;;;;1.80;0.30;;;17.40;79.70;;;;;;5023585;28;20029;-65
2023/03/30 10:21:45;;;;;;;0.88;0.20;;;17.40;80.40;;;;;;5023866;28;20038;-65
2023/03/30 10:24:13;;;;;;;3.20;0.45;;;17.30;81.00;;;;;;5020463;28;20124;-64
2023/03/30 10:26:45;;;;;;;4.18;1.23;;;17.30;81.40;;;;;;5005409;28;20026;-66
2023/03/30 10:29:22;;;;;;;2.53;0.65;;;17.30;81.40;;;;;;5021834;28;20805;-65
2023/03/30 10:32:09;;;;;;;4.63;0.80;;;17.30;81.90;;;;;;5013619;28;20022;-64
2023/03/30 10:34:43;;;;;;;1.80;0.50;;;17.20;83.10;;;;;;5027264;28;20036;-64
2023/03/30 10:37:22;;;;;;;3.92;0.50;;;17.10;83.20;;;;;;5027237;28;20037;-65
2023/03/30 10:39:51;;;;;;;1.25;0.82;;;17.00;84.30;;;;;;5027209;28;20120;-64
2023/03/30 10:42:24;;;;;;;2.45;1.02;;;16.90;85.40;;;;;;5023732;28;20133;-65
2023/03/30 10:44:54;;;;;;;1.05;0.50;;;16.80;86.10;;;;;;5001352;28;20037;-65
2023/03/30 10:47:48;;;;;;;3.55;1.00;;;16.80;87.90;;;;;;5005584;28;20022;-65
2023/03/30 10:50:34;;;;;;;5.85;1.40;;;16.70;88.10;;;;;;5000442;28;20562;-64
2023/03/30 10:53:36;;;;;;;6.22;1.35;;;16.70;89.40;;;;;;5008364;28;20053;-64
2023/03/30 10:56:29;;;;;;;16.65;1.65;;;16.70;90.10;;;;;;4998725;28;20038;-64
2023/03/30 10:59:27;;;;;;;9.55;1.98;;;16.70;90.50;;;;;;5006179;28;20506;-64
2023/03/30 11:02:16;;;;;;;11.10;1.45;;;16.60;90.70;;;;;;4993778;28;20063;-64
2023/03/30 11:05:21;;;;;;;8.70;1.95;;;16.60;91.40;;;;;;5009437;28;20030;-64
2023/03/30 11:08:03;;;;;;;2.50;0.70;;;16.50;91.60;;;;;;4999908;28;20108;-64
2023/03/30 11:10:38;;;;;;;4.50;0.90;;;16.40;91.90;;;;;;5015673;28;20152;-64
2023/03/30 11:13:10;;;;;;;1.23;0.40;;;16.20;93.40;;;;;;5008097;28;20037;-63
2023/03/30 11:15:41;;;;;;;1.83;0.52;;;16.20;93.30;;;;;;5006186;28;20100;-64
2023/03/30 11:18:31;;;;;;;2.50;0.30;;;16.10;93.70;;;;;;5004664;28;20026;-64
2023/03/30 11:21:35;;;;;;;1.15;0.38;;;16.00;94.40;;;;;;5006185;28;20025;-65
2023/03/30 11:24:06;;;;;;;0.50;0.30;;;15.80;94.90;;;;;;4951534;28;20074;-64
2023/03/30 11:26:37;;;;;;;0.60;0.30;;;15.80;95.70;;;;;;5008702;28;20030;-64
2023/03/30 11:29:16;;;;;;;0.45;0.35;;;15.80;96.20;;;;;;5004775;28;20116;-64
2023/03/30 11:32:02;;;;;;;1.02;0.30;;;15.60;97.00;;;;;;5019363;28;20034;-64
2023/03/30 11:34:50;;;;;;;2.55;0.40;;;15.70;97.20;;;;;;5003412;28;20053;-64
2023/03/30 11:37:28;;;;;;;2.72;0.40;;;15.70;98.00;;;;;;5012804;28;20562;-64
2023/03/30 11:40:10;;;;;;;1.63;0.38;;;15.60;98.10;;;;;;5005339;28;20025;-64
2023/03/30 11:42:38;;;;;;;1.23;0.40;;;15.70;98.70;;;;;;5002317;28;20386;-65
2023/03/30 11:45:28;;;;;;;2.00;0.55;;;15.70;98.10;;;;;;4999917;28;20036;-64
2023/03/30 11:48:20;;;;;;;0.80;0.30;;;15.70;98.60;;;;;;5020169;28;20573;-64
2023/03/30 11:51:14;;;;;;;1.52;0.55;;;15.60;99.00;;;;;;5008960;28;20038;-63
2023/03/30 11:54:16;;;;;;;3.60;0.55;;;15.60;99.90;;;;;;5006990;28;20084;-65
2023/03/30 11:56:52;;;;;;;2.53;0.52;;;15.30;99.70;;;;;;5005352;28;20088;-65
2023/03/30 12:00:08;;;;;;;1.02;0.45;;;15.10;99.70;;;;;;5006939;28;20029;-65
2023/03/30 12:02:57;;;;;;;1.88;0.75;;;15.00;99.90;;;;;;5007028;28;20482;-64
2023/03/30 12:05:47;;;;;;;1.00;0.45;;;14.80;99.90;;;;;;5009822;28;20093;-64
2023/03/30 12:08:24;;;;;;;0.70;0.40;;;14.60;99.90;;;;;;5007149;28;20549;-64
2023/03/30 12:11:01;;;;;;;1.33;0.45;;;14.50;99.90;;;;;;5006423;28;20068;-63
2023/03/30 12:13:29;;;;;;;2.25;0.70;;;14.40;99.90;;;;;;5009154;28;20420;-63
2023/03/30 12:16:08;;;;;;;0.70;0.45;;;14.30;99.90;;;;;;5024275;28;20098;-64
2023/03/30 12:19:07;;;;;;;3.25;0.50;;;14.20;99.90;;;;;;5007301;28;20565;-64
2023/03/30 12:21:34;;;;;;;4.57;0.70;;;14.20;99.90;;;;;;5007672;28;20048;-64
2023/03/30 12:24:14;;;;;;;1.98;0.63;;;14.10;99.90;;;;;;5008393;28;20429;-64
2023/03/30 12:26:42;;;;;;;0.50;0.40;;;14.00;99.90;;;;;;5010824;28;20109;-64
2023/03/30 12:29:11;;;;;;;1.52;0.80;;;14.00;99.90;;;;;;5003284;28;20041;-63
2023/03/30 12:32:01;;;;;;;0.65;0.50;;;13.80;99.90;;;;;;5026282;28;20046;-64
2023/03/30 12:34:34;;;;;;;2.22;0.90;;;13.80;99.90;;;;;;5008335;28;20034;-63
2023/03/30 12:37:05;;;;;;;1.80;0.75;;;13.70;99.90;;;;;;5009468;28;20636;-63
2023/03/30 12:39:49;;;;;;;2.10;0.70;;;13.70;99.90;;;;;;5006272;28;20035;-63
2023/03/30 12:42:45;;;;;;;2.95;0.80;;;13.60;99.90;;;;;;5011863;28;20053;-63
2023/03/30 12:45:24;;;;;;;3.05;0.90;;;13.50;99.90;;;;;;5007172;28;20038;-63
2023/03/30 12:48:04;;;;;;;1.98;1.00;;;13.40;99.90;;;;;;5005563;28;20501;-63
2023/03/30 12:50:55;;;;;;;4.60;1.83;;;13.40;99.90;;;;;;5008360;28;20060;-63
2023/03/30 12:53:46;;;;;;;5.03;1.17;;;13.30;99.90;;;;;;5001162;28;20038;-63
2023/03/30 12:56:54;;;;;;;3.50;1.58;;;13.20;99.90;;;;;;5007043;28;20057;-63
2023/03/30 12:59:52;;;;;;;4.10;0.82;;;13.20;99.90;;;;;;4929907;29;20028;-63
2023/03/30 13:03:10;;;;;;;5.40;0.88;;;13.20;99.90;;;;;;4928217;29;20027;-63
2023/03/30 13:05:43;;;;;;;2.22;0.82;;;13.10;99.90;;;;;;4977702;28;20030;-63
2023/03/30 13:08:30;;;;;;;3.22;0.90;;;13.00;99.90;;;;;;4999918;28;20097;-63
2023/03/30 13:11:12;;;;;;;2.53;1.10;;;12.90;99.90;;;;;;5007359;28;20054;-63
2023/03/30 13:14:13;;;;;;;5.85;1.35;;;12.80;99.90;;;;;;5009847;28;20418;-62
2023/03/30 13:16:53;;;;;;;1.77;0.70;;;12.70;99.90;;;;;;5008852;28;20396;-63
2023/03/30 13:19:47;;;;;;;3.92;0.90;;;12.80;99.90;;;;;;5004886;28;20123;-62
2023/03/30 13:22:14;;;;;;;2.67;0.73;;;12.80;99.90;;;;;;5005545;28;20392;-63
2023/03/30 13:24:43;;;;;;;1.33;0.60;;;12.80;99.90;;;;;;5000258;28;20379;-63
2023/03/30 13:27:32;;;;;;;3.03;0.95;;;12.90;99.90;;;;;;5004594;28;20029;-64